Time;durP1;ratioP1;P1;durP2;ratioP2;P2;SDS_P1;SDS_P2;PMS_P1;PMS_P2;Temp;Humidity;BMP_temperature;BMP_pressure;BME280_temperature;BME280_humidity;BME280_pressure;Samples;Min_cycle;Max_cycle;Signal;HPM_P1;HPM_P2
2023/05/15 00:00:14;;;;;;;0.70;0.70;;;;;;;;;;4946864;29;20473;-76
2023/05/15 00:02:43;;;;;;;0.70;0.70;;;;;;;;;;4944761;29;20517;-76
2023/05/15 00:05:11;;;;;;;0.80;0.80;;;;;;;;;;4942698;29;20441;-77
2023/05/15 00:07:39;;;;;;;0.70;0.70;;;;;;;;;;4944977;28;20549;-75
2023/05/15 00:10:07;;;;;;;0.80;0.70;;;;;;;;;;4944563;29;20443;-73
2023/05/15 00:12:35;;;;;;;0.80;0.80;;;;;;;;;;4946104;29;20445;-76
2023/05/15 00:15:02;;;;;;;3.43;2.00;;;;;;;;;;4928510;29;20448;-75
2023/05/15 00:17:31;;;;;;;0.80;0.70;;;;;;;;;;4941895;29;20460;-75
2023/05/15 00:20:01;;;;;;;65.43;3.17;;;;;;;;;;4936400;29;20532;-76
2023/05/15 00:22:28;;;;;;;2.97;2.77;;;;;;;;;;4944424;29;21012;-77
2023/05/15 00:24:55;;;;;;;0.80;0.80;;;;;;;;;;4939877;29;20449;-77
2023/05/15 00:27:22;;;;;;;0.80;0.73;;;;;;;;;;4938009;29;20481;-76
2023/05/15 00:29:49;;;;;;;0.70;0.63;;;;;;;;;;4940231;29;21030;-75
2023/05/15 00:32:16;;;;;;;0.70;0.60;;;;;;;;;;4941937;29;20457;-76
2023/05/15 00:34:44;;;;;;;0.80;0.70;;;;;;;;;;4940800;29;20934;-76
2023/05/15 00:37:11;;;;;;;1.10;1.00;;;;;;;;;;4923615;29;20472;-77
2023/05/15 00:39:38;;;;;;;0.80;0.80;;;;;;;;;;4943549;29;20837;-76
2023/05/15 00:42:05;;;;;;;0.70;0.60;;;;;;;;;;4936148;29;20446;-77
2023/05/15 00:44:33;;;;;;;0.80;0.80;;;;;;;;;;4929416;29;20452;-77
2023/05/15 00:47:01;;;;;;;0.77;0.73;;;;;;;;;;4939215;28;20445;-77
2023/05/15 00:49:28;;;;;;;0.70;0.70;;;;;;;;;;4940682;29;20491;-76
2023/05/15 00:51:57;;;;;;;0.73;0.70;;;;;;;;;;4941223;29;20975;-77
2023/05/15 00:54:24;;;;;;;0.70;0.70;;;;;;;;;;4939880;29;20457;-77
2023/05/15 00:56:51;;;;;;;0.70;0.70;;;;;;;;;;4956510;28;20492;-75
2023/05/15 00:59:18;;;;;;;0.80;0.70;;;;;;;;;;4939769;29;20457;-76
2023/05/15 01:01:45;;;;;;;0.97;0.93;;;;;;;;;;4940370;28;20971;-77
2023/05/15 01:04:12;;;;;;;0.70;0.60;;;;;;;;;;4941192;29;20783;-77
2023/05/15 01:06:39;;;;;;;1.93;1.83;;;;;;;;;;4940553;29;20454;-77
2023/05/15 01:09:08;;;;;;;0.70;0.63;;;;;;;;;;4944349;29;20488;-75
2023/05/15 01:11:36;;;;;;;0.70;0.70;;;;;;;;;;4944923;29;20454;-74
2023/05/15 01:14:04;;;;;;;1.00;1.00;;;;;;;;;;4939364;29;20441;-75
2023/05/15 01:16:31;;;;;;;1.43;1.33;;;;;;;;;;4940266;29;20477;-76
2023/05/15 01:19:00;;;;;;;0.70;0.70;;;;;;;;;;4926888;29;20454;-76
2023/05/15 01:21:38;;;;;;;0.70;0.60;;;;;;;;;;4939533;29;20440;-76
2023/05/15 01:24:12;;;;;;;0.70;0.70;;;;;;;;;;4945482;29;20522;-75
2023/05/15 01:26:47;;;;;;;0.70;0.60;;;;;;;;;;4940020;29;20988;-76
2023/05/15 01:29:21;;;;;;;0.70;0.70;;;;;;;;;;4942325;29;20564;-75
2023/05/15 01:31:49;;;;;;;2.10;1.33;;;;;;;;;;4934922;29;20435;-76
2023/05/15 01:34:18;;;;;;;1.40;1.30;;;;;;;;;;4939491;29;20495;-76
2023/05/15 01:36:47;;;;;;;0.70;0.70;;;;;;;;;;4938150;29;20912;-76
2023/05/15 01:39:15;;;;;;;0.70;0.60;;;;;;;;;;4936541;28;20551;-77
2023/05/15 01:41:50;;;;;;;0.90;0.90;;;;;;;;;;4937684;29;20458;-77
2023/05/15 01:44:24;;;;;;;0.70;0.60;;;;;;;;;;4926251;29;20818;-74
2023/05/15 01:46:51;;;;;;;0.80;0.80;;;;;;;;;;4941796;29;20491;-77
2023/05/15 01:49:22;;;;;;;0.70;0.70;;;;;;;;;;4934016;29;20881;-75
2023/05/15 01:51:51;;;;;;;0.70;0.70;;;;;;;;;;4942227;29;20476;-77
2023/05/15 01:54:19;;;;;;;1.67;1.27;;;;;;;;;;4934520;29;20455;-75
2023/05/15 01:56:46;;;;;;;0.70;0.70;;;;;;;;;;4938008;29;20559;-77
2023/05/15 01:59:14;;;;;;;0.70;0.60;;;;;;;;;;4936819;28;20461;-76
2023/05/15 02:01:43;;;;;;;3.53;2.80;;;;;;;;;;4934339;28;20459;-77
2023/05/15 02:04:11;;;;;;;0.70;0.60;;;;;;;;;;4936816;29;20962;-76
2023/05/15 02:06:38;;;;;;;1.47;1.07;;;;;;;;;;4923107;29;20461;-77
2023/05/15 02:09:05;;;;;;;0.90;0.90;;;;;;;;;;4940464;29;20514;-77
2023/05/15 02:11:33;;;;;;;0.80;0.80;;;;;;;;;;4926081;29;20487;-76
2023/05/15 02:14:00;;;;;;;0.70;0.70;;;;;;;;;;4938111;29;20486;-77
2023/05/15 02:16:27;;;;;;;0.70;0.60;;;;;;;;;;4940906;29;20437;-76
2023/05/15 02:18:57;;;;;;;1.07;1.07;;;;;;;;;;4952827;28;20476;-76
2023/05/15 02:21:24;;;;;;;0.70;0.70;;;;;;;;;;4937842;29;20479;-76
2023/05/15 02:23:51;;;;;;;1.67;1.40;;;;;;;;;;4941827;29;20443;-77
2023/05/15 02:26:29;;;;;;;0.70;0.67;;;;;;;;;;4944107;29;21700;-76
2023/05/15 02:29:00;;;;;;;0.70;0.60;;;;;;;;;;4939842;29;20468;-77
2023/05/15 02:31:31;;;;;;;1.23;1.17;;;;;;;;;;4936001;29;21014;-76
2023/05/15 02:34:06;;;;;;;0.70;0.70;;;;;;;;;;4943321;28;20461;-77
2023/05/15 02:36:36;;;;;;;1.57;1.47;;;;;;;;;;4936005;29;21000;-76
2023/05/15 02:39:03;;;;;;;0.80;0.80;;;;;;;;;;4932032;29;20463;-76
2023/05/15 02:41:30;;;;;;;1.90;1.73;;;;;;;;;;4937413;29;20791;-75
2023/05/15 02:43:59;;;;;;;4.20;1.93;;;;;;;;;;4937503;29;20474;-76
2023/05/15 02:46:26;;;;;;;1.27;1.17;;;;;;;;;;4935759;29;20465;-76
2023/05/15 02:48:53;;;;;;;0.70;0.67;;;;;;;;;;4936150;29;20606;-76
2023/05/15 02:51:24;;;;;;;1.23;1.13;;;;;;;;;;4925997;29;20464;-76
2023/05/15 02:53:51;;;;;;;0.80;0.80;;;;;;;;;;4918665;29;20535;-76
2023/05/15 02:56:18;;;;;;;1.20;1.10;;;;;;;;;;4939654;29;20449;-76
2023/05/15 02:58:45;;;;;;;1.00;1.00;;;;;;;;;;4942192;29;20459;-76
2023/05/15 03:01:11;;;;;;;0.70;0.70;;;;;;;;;;4955430;28;20458;-77
2023/05/15 03:03:38;;;;;;;0.73;0.70;;;;;;;;;;4938624;29;20971;-77
2023/05/15 03:06:05;;;;;;;0.90;0.90;;;;;;;;;;4942937;29;20797;-77
2023/05/15 03:08:33;;;;;;;0.70;0.70;;;;;;;;;;4941783;28;21261;-77
2023/05/15 03:11:01;;;;;;;1.00;0.90;;;;;;;;;;4941785;29;20472;-75
2023/05/15 03:13:28;;;;;;;1.20;1.10;;;;;;;;;;4927018;29;20457;-76
2023/05/15 03:15:54;;;;;;;4.80;1.20;;;;;;;;;;4940615;29;21330;-76
2023/05/15 03:18:21;;;;;;;0.80;0.80;;;;;;;;;;4946265;29;20868;-76
2023/05/15 03:20:48;;;;;;;0.70;0.70;;;;;;;;;;4946646;29;20474;-76
2023/05/15 03:23:15;;;;;;;1.37;1.27;;;;;;;;;;4947132;29;20524;-76
2023/05/15 03:25:44;;;;;;;0.70;0.60;;;;;;;;;;4931656;29;20461;-77
2023/05/15 03:28:10;;;;;;;0.90;0.90;;;;;;;;;;4946037;29;20541;-73
2023/05/15 03:30:37;;;;;;;0.80;0.80;;;;;;;;;;4929596;29;20470;-77
2023/05/15 03:33:05;;;;;;;0.70;0.70;;;;;;;;;;4946307;29;20831;-75
2023/05/15 03:35:32;;;;;;;0.70;0.70;;;;;;;;;;4931237;29;20440;-77
2023/05/15 03:37:59;;;;;;;1.83;1.73;;;;;;;;;;4947038;29;21083;-77
2023/05/15 03:40:26;;;;;;;0.70;0.60;;;;;;;;;;4942555;29;20441;-76
2023/05/15 03:42:54;;;;;;;8.23;1.90;;;;;;;;;;4943895;29;20503;-75
2023/05/15 03:45:21;;;;;;;0.93;0.87;;;;;;;;;;4946977;29;20466;-77
2023/05/15 03:47:48;;;;;;;1.97;1.00;;;;;;;;;;4942050;29;20461;-77
2023/05/15 03:50:15;;;;;;;0.80;0.80;;;;;;;;;;4943239;29;20486;-75
2023/05/15 03:52:42;;;;;;;0.80;0.80;;;;;;;;;;4940363;29;20491;-75
2023/05/15 03:55:09;;;;;;;1.60;1.50;;;;;;;;;;4947661;29;21054;-76
2023/05/15 03:57:35;;;;;;;1.33;1.23;;;;;;;;;;4943526;29;21106;-75
2023/05/15 04:00:08;;;;;;;0.80;0.80;;;;;;;;;;4937116;29;20528;-78
2023/05/15 04:02:41;;;;;;;0.70;0.70;;;;;;;;;;4937922;29;20429;-75
2023/05/15 04:05:08;;;;;;;3.40;3.20;;;;;;;;;;4928815;29;20543;-77
2023/05/15 04:07:35;;;;;;;0.80;0.80;;;;;;;;;;4940860;29;20961;-75
2023/05/15 04:10:02;;;;;;;3.93;2.00;;;;;;;;;;4940839;29;20477;-76
2023/05/15 04:12:31;;;;;;;0.70;0.70;;;;;;;;;;4940381;29;20560;-75
2023/05/15 04:14:58;;;;;;;0.83;0.83;;;;;;;;;;4942044;29;20463;-76
2023/05/15 04:17:26;;;;;;;0.73;0.73;;;;;;;;;;4940492;29;20500;-77
2023/05/15 04:19:53;;;;;;;0.80;0.80;;;;;;;;;;4943047;29;20527;-76
2023/05/15 04:22:20;;;;;;;0.83;0.83;;;;;;;;;;4939676;29;20505;-75
2023/05/15 04:24:47;;;;;;;0.70;0.60;;;;;;;;;;4935900;29;20453;-74
2023/05/15 04:27:14;;;;;;;1.47;1.00;;;;;;;;;;4939926;29;20458;-76
2023/05/15 04:29:40;;;;;;;0.70;0.60;;;;;;;;;;4935621;29;21003;-77
2023/05/15 04:32:07;;;;;;;0.73;0.73;;;;;;;;;;4938906;29;20464;-76
2023/05/15 04:34:36;;;;;;;2.17;1.20;;;;;;;;;;4933439;29;20862;-76
2023/05/15 04:37:03;;;;;;;0.70;0.70;;;;;;;;;;4940061;29;20472;-76
2023/05/15 04:39:30;;;;;;;0.70;0.60;;;;;;;;;;4937908;28;20981;-78
2023/05/15 04:41:58;;;;;;;0.70;0.70;;;;;;;;;;4941204;29;20466;-76
2023/05/15 04:44:24;;;;;;;1.10;1.00;;;;;;;;;;4938410;28;20463;-74
2023/05/15 04:46:51;;;;;;;1.00;0.90;;;;;;;;;;4947283;29;20469;-76
2023/05/15 04:49:18;;;;;;;0.80;0.80;;;;;;;;;;4948303;29;20461;-75
2023/05/15 04:51:46;;;;;;;0.70;0.70;;;;;;;;;;4939931;29;20827;-76
2023/05/15 04:54:13;;;;;;;0.70;0.70;;;;;;;;;;4945130;29;20817;-75
2023/05/15 04:56:40;;;;;;;1.17;1.07;;;;;;;;;;4939019;29;20443;-75
2023/05/15 04:59:06;;;;;;;2.40;1.23;;;;;;;;;;4942699;29;20781;-76
2023/05/15 05:01:33;;;;;;;1.47;1.37;;;;;;;;;;4928823;29;20452;-76
2023/05/15 05:04:01;;;;;;;0.70;0.70;;;;;;;;;;4932635;29;20434;-77
2023/05/15 05:06:28;;;;;;;0.70;0.70;;;;;;;;;;4937367;29;20451;-76
2023/05/15 05:08:57;;;;;;;3.33;1.97;;;;;;;;;;4936074;29;20543;-79
2023/05/15 05:11:24;;;;;;;0.70;0.70;;;;;;;;;;4935359;28;20471;-76
2023/05/15 05:13:51;;;;;;;0.77;0.77;;;;;;;;;;4942057;29;20448;-76
2023/05/15 05:16:19;;;;;;;0.70;0.70;;;;;;;;;;4938426;29;20811;-77
2023/05/15 05:18:46;;;;;;;2.40;2.20;;;;;;;;;;4923975;29;20783;-77
2023/05/15 05:21:13;;;;;;;0.90;0.90;;;;;;;;;;4938063;29;20443;-75
2023/05/15 05:23:40;;;;;;;0.70;0.70;;;;;;;;;;4937972;29;20850;-76
2023/05/15 05:26:12;;;;;;;0.70;0.67;;;;;;;;;;4935267;29;20457;-76
2023/05/15 05:28:39;;;;;;;0.87;0.87;;;;;;;;;;4917334;29;20819;-77
2023/05/15 05:31:06;;;;;;;0.70;0.70;;;;;;;;;;4936670;29;20486;-75
2023/05/15 05:33:34;;;;;;;0.70;0.70;;;;;;;;;;4942981;29;20494;-76
2023/05/15 05:36:01;;;;;;;2.80;1.87;;;;;;;;;;4932617;29;20475;-76
2023/05/15 05:38:28;;;;;;;0.70;0.70;;;;;;;;;;4936239;29;20568;-77
2023/05/15 05:40:56;;;;;;;1.87;1.77;;;;;;;;;;4932935;29;20958;-77
2023/05/15 05:43:25;;;;;;;3.20;1.97;;;;;;;;;;4929009;29;20818;-76
2023/05/15 05:45:52;;;;;;;0.77;0.77;;;;;;;;;;4941697;28;20452;-77
2023/05/15 05:48:19;;;;;;;0.70;0.70;;;;;;;;;;4940767;29;20458;-76
2023/05/15 05:50:46;;;;;;;1.47;1.37;;;;;;;;;;4937303;29;20567;-76
2023/05/15 05:53:13;;;;;;;14.80;2.33;;;;;;;;;;4940766;29;20571;-76
2023/05/15 05:55:40;;;;;;;0.70;0.67;;;;;;;;;;4929865;29;20534;-76
2023/05/15 05:58:07;;;;;;;0.83;0.83;;;;;;;;;;4917973;29;20487;-77
2023/05/15 06:00:51;;;;;;;0.70;0.60;;;;;;;;;;4939833;29;20432;-75
2023/05/15 06:03:19;;;;;;;1.37;1.27;;;;;;;;;;4944017;29;20428;-76
2023/05/15 06:05:46;;;;;;;0.80;0.80;;;;;;;;;;4939957;29;20790;-77
2023/05/15 06:08:15;;;;;;;1.70;1.60;;;;;;;;;;4924312;29;20465;-78
2023/05/15 06:10:44;;;;;;;0.80;0.70;;;;;;;;;;4935129;29;20524;-76
2023/05/15 06:13:13;;;;;;;0.73;0.70;;;;;;;;;;4943119;29;20475;-77
2023/05/15 06:15:42;;;;;;;0.70;0.70;;;;;;;;;;4940366;29;20440;-76
2023/05/15 06:18:10;;;;;;;0.70;0.70;;;;;;;;;;4935570;29;20449;-77
2023/05/15 06:20:37;;;;;;;1.87;1.40;;;;;;;;;;4946006;29;20991;-77
2023/05/15 06:23:08;;;;;;;0.80;0.80;;;;;;;;;;4939748;29;20464;-77
2023/05/15 06:25:35;;;;;;;0.83;0.83;;;;;;;;;;4940767;28;20457;-75
2023/05/15 06:28:03;;;;;;;1.77;1.67;;;;;;;;;;4935996;29;20842;-75
2023/05/15 06:30:31;;;;;;;0.70;0.70;;;;;;;;;;4900856;29;20494;-80
2023/05/15 06:32:58;;;;;;;0.93;0.93;;;;;;;;;;4935104;29;20547;-76
2023/05/15 06:35:27;;;;;;;4.50;2.00;;;;;;;;;;4935259;29;20546;-76
2023/05/15 06:37:54;;;;;;;0.80;0.80;;;;;;;;;;4943012;29;20476;-76
2023/05/15 06:40:24;;;;;;;0.80;0.80;;;;;;;;;;4941588;29;20444;-77
2023/05/15 06:42:51;;;;;;;1.47;1.37;;;;;;;;;;4940675;29;20859;-74
2023/05/15 06:45:18;;;;;;;1.43;1.23;;;;;;;;;;4937814;29;20556;-76
2023/05/15 06:47:45;;;;;;;0.80;0.80;;;;;;;;;;4943096;29;20585;-77
2023/05/15 06:50:14;;;;;;;0.70;0.70;;;;;;;;;;4936003;29;20491;-77
2023/05/15 06:52:42;;;;;;;1.20;1.10;;;;;;;;;;4942528;29;20465;-76
2023/05/15 06:55:09;;;;;;;1.50;1.17;;;;;;;;;;4930136;29;20526;-76
2023/05/15 06:57:36;;;;;;;0.70;0.70;;;;;;;;;;4938603;29;20457;-76
2023/05/15 07:00:05;;;;;;;0.80;0.80;;;;;;;;;;4937037;29;20457;-76
2023/05/15 07:02:33;;;;;;;6.73;2.13;;;;;;;;;;4938299;29;20453;-75
2023/05/15 07:05:00;;;;;;;0.70;0.70;;;;;;;;;;4944695;29;20464;-75
2023/05/15 07:07:27;;;;;;;6.83;2.13;;;;;;;;;;4938814;29;20466;-75
2023/05/15 07:09:55;;;;;;;0.80;0.70;;;;;;;;;;4935913;29;20452;-77
2023/05/15 07:12:22;;;;;;;0.80;0.80;;;;;;;;;;4942675;29;20501;-77
2023/05/15 07:14:50;;;;;;;0.70;0.70;;;;;;;;;;4943075;29;20511;-76
2023/05/15 07:17:18;;;;;;;0.83;0.83;;;;;;;;;;4951767;28;20456;-74
2023/05/15 07:19:45;;;;;;;0.70;0.70;;;;;;;;;;4922002;29;20585;-74
2023/05/15 07:22:12;;;;;;;0.70;0.60;;;;;;;;;;4938975;29;20504;-75
2023/05/15 07:24:39;;;;;;;3.50;1.07;;;;;;;;;;4943790;29;20441;-76
2023/05/15 07:27:08;;;;;;;0.90;0.90;;;;;;;;;;4942640;29;20436;-74
2023/05/15 07:29:35;;;;;;;0.70;0.70;;;;;;;;;;4932856;29;20445;-75
2023/05/15 07:32:02;;;;;;;1.93;1.73;;;;;;;;;;4937409;29;20480;-76
2023/05/15 07:34:29;;;;;;;0.80;0.80;;;;;;;;;;4932646;29;20454;-76
2023/05/15 07:36:56;;;;;;;7.70;2.00;;;;;;;;;;4926270;29;20478;-76
2023/05/15 07:39:23;;;;;;;1.00;1.00;;;;;;;;;;4938348;29;20464;-77
2023/05/15 07:41:50;;;;;;;0.70;0.70;;;;;;;;;;4940504;28;20436;-77
2023/05/15 07:44:18;;;;;;;0.70;0.70;;;;;;;;;;4943615;29;20442;-77
2023/05/15 07:46:45;;;;;;;4.20;2.23;;;;;;;;;;4946142;29;20441;-77
2023/05/15 07:49:12;;;;;;;0.80;0.80;;;;;;;;;;4940987;28;21171;-75
2023/05/15 07:51:39;;;;;;;1.53;1.43;;;;;;;;;;4921608;29;20570;-76
2023/05/15 07:54:06;;;;;;;0.70;0.67;;;;;;;;;;4944171;29;20493;-77
2023/05/15 07:56:35;;;;;;;2.03;1.93;;;;;;;;;;4947545;28;20451;-76
2023/05/15 07:59:02;;;;;;;1.23;1.13;;;;;;;;;;4936804;29;20449;-75
2023/05/15 08:01:30;;;;;;;2.27;2.07;;;;;;;;;;4942224;29;20956;-75
2023/05/15 08:03:58;;;;;;;0.70;0.70;;;;;;;;;;4922113;29;20497;-75
2023/05/15 08:06:27;;;;;;;0.73;0.73;;;;;;;;;;4939149;29;20449;-76
2023/05/15 08:08:54;;;;;;;0.80;0.80;;;;;;;;;;4941248;29;20439;-77
2023/05/15 08:11:22;;;;;;;0.70;0.70;;;;;;;;;;4936991;28;20569;-76
2023/05/15 08:13:49;;;;;;;2.53;1.63;;;;;;;;;;4943066;29;20448;-76
2023/05/15 08:16:17;;;;;;;0.80;0.70;;;;;;;;;;4946028;29;20504;-76
2023/05/15 08:18:46;;;;;;;1.67;1.10;;;;;;;;;;4943081;29;20437;-76
2023/05/15 08:21:14;;;;;;;1.43;1.03;;;;;;;;;;4938901;29;20442;-78
2023/05/15 08:23:40;;;;;;;5.40;2.10;;;;;;;;;;4938762;29;20456;-76
2023/05/15 08:26:07;;;;;;;0.70;0.70;;;;;;;;;;4938014;29;20440;-76
2023/05/15 08:28:34;;;;;;;1.90;1.20;;;;;;;;;;4941864;29;20462;-76
2023/05/15 08:31:01;;;;;;;0.70;0.70;;;;;;;;;;4939744;29;20518;-77
2023/05/15 08:33:28;;;;;;;0.70;0.70;;;;;;;;;;4946713;29;20879;-76
2023/05/15 08:35:57;;;;;;;0.80;0.80;;;;;;;;;;4922350;29;20445;-76
2023/05/15 08:38:26;;;;;;;4.93;2.00;;;;;;;;;;4941206;29;20465;-77
2023/05/15 08:40:54;;;;;;;2.13;1.20;;;;;;;;;;4944003;29;20449;-76
2023/05/15 08:43:22;;;;;;;1.00;0.90;;;;;;;;;;4941075;29;20454;-76
2023/05/15 08:45:49;;;;;;;2.40;2.20;;;;;;;;;;4939826;29;20443;-77
2023/05/15 08:48:18;;;;;;;0.90;0.90;;;;;;;;;;4916541;29;20803;-76
2023/05/15 08:50:45;;;;;;;1.67;1.57;;;;;;;;;;4935651;29;20494;-74
2023/05/15 08:53:14;;;;;;;1.40;1.30;;;;;;;;;;4938225;29;20480;-74
2023/05/15 08:55:42;;;;;;;1.10;1.00;;;;;;;;;;4942475;29;20432;-76
2023/05/15 08:58:09;;;;;;;0.80;0.80;;;;;;;;;;4938458;29;20447;-77
2023/05/15 09:00:36;;;;;;;0.80;0.80;;;;;;;;;;4938539;29;20449;-77
2023/05/15 09:03:03;;;;;;;1.63;1.53;;;;;;;;;;4940590;29;20480;-76
2023/05/15 09:05:30;;;;;;;1.17;1.10;;;;;;;;;;4935097;29;21037;-76
2023/05/15 09:07:58;;;;;;;1.13;1.07;;;;;;;;;;4941424;29;20798;-76
2023/05/15 09:10:27;;;;;;;0.70;0.70;;;;;;;;;;4941406;28;20444;-76
2023/05/15 09:12:54;;;;;;;1.30;1.20;;;;;;;;;;4935761;29;20480;-75
2023/05/15 09:15:24;;;;;;;0.93;0.90;;;;;;;;;;4942209;29;20833;-77
2023/05/15 09:17:51;;;;;;;0.70;0.70;;;;;;;;;;4944091;29;20434;-75
2023/05/15 09:20:25;;;;;;;1.30;1.20;;;;;;;;;;4937429;29;20444;-76
2023/05/15 09:22:52;;;;;;;1.10;1.00;;;;;;;;;;4949662;28;20459;-76
2023/05/15 09:25:40;;;;;;;1.17;1.07;;;;;;;;;;4934394;29;21204;-77
2023/05/15 09:28:09;;;;;;;0.70;0.70;;;;;;;;;;4938136;29;20556;-77
2023/05/15 09:30:36;;;;;;;0.80;0.80;;;;;;;;;;4937483;29;20475;-77
2023/05/15 09:33:03;;;;;;;0.80;0.80;;;;;;;;;;4924840;29;20465;-77
2023/05/15 09:35:31;;;;;;;1.00;1.00;;;;;;;;;;4947018;29;20921;-75
2023/05/15 09:37:59;;;;;;;0.80;0.70;;;;;;;;;;4917488;29;20580;-75
2023/05/15 09:40:27;;;;;;;2.03;1.93;;;;;;;;;;4926287;29;20475;-76
2023/05/15 09:42:54;;;;;;;0.80;0.80;;;;;;;;;;4941370;29;20432;-76
2023/05/15 09:45:28;;;;;;;0.90;0.90;;;;;;;;;;4939141;29;20437;-77
2023/05/15 09:47:58;;;;;;;1.53;1.43;;;;;;;;;;4942255;29;20428;-77
2023/05/15 09:50:32;;;;;;;0.70;0.70;;;;;;;;;;4923697;29;20551;-76
2023/05/15 09:52:59;;;;;;;2.70;1.10;;;;;;;;;;4938573;29;21016;-78
2023/05/15 09:55:26;;;;;;;0.80;0.70;;;;;;;;;;4942044;29;20411;-76
2023/05/15 09:58:06;;;;;;;1.07;0.90;;;;;;;;;;4937552;28;20437;-77
2023/05/15 10:00:34;;;;;;;1.23;1.13;;;;;;;;;;4917626;29;20471;-77
2023/05/15 10:03:02;;;;;;;1.37;1.27;;;;;;;;;;4921124;29;20543;-76
2023/05/15 10:05:29;;;;;;;5.80;2.80;;;;;;;;;;4932423;29;20439;-78
2023/05/15 10:08:08;;;;;;;0.83;0.80;;;;;;;;;;4925254;29;20575;-77
2023/05/15 10:10:35;;;;;;;0.80;0.73;;;;;;;;;;4939172;29;20449;-75
2023/05/15 10:13:04;;;;;;;0.97;0.90;;;;;;;;;;4937195;29;20545;-78
2023/05/15 10:15:31;;;;;;;0.70;0.70;;;;;;;;;;4946849;28;20823;-76
2023/05/15 10:18:02;;;;;;;1.93;1.40;;;;;;;;;;4937191;28;20453;-76
2023/05/15 10:20:30;;;;;;;1.93;1.77;;;;;;;;;;4951286;28;20445;-77
2023/05/15 10:22:59;;;;;;;1.73;1.63;;;;;;;;;;4932104;29;20838;-76
2023/05/15 10:25:30;;;;;;;0.70;0.60;;;;;;;;;;4919546;29;20445;-76
2023/05/15 10:27:57;;;;;;;0.70;0.50;;;;;;;;;;4940595;29;20440;-77
2023/05/15 10:30:25;;;;;;;0.80;0.73;;;;;;;;;;4945830;29;20925;-80
2023/05/15 10:32:52;;;;;;;1.67;1.57;;;;;;;;;;4846532;29;20527;-76
2023/05/15 10:35:21;;;;;;;2.03;1.93;;;;;;;;;;4885797;29;20446;-76
2023/05/15 10:37:48;;;;;;;0.70;0.60;;;;;;;;;;4881684;29;20467;-78
2023/05/15 10:40:16;;;;;;;0.70;0.60;;;;;;;;;;4886675;29;20559;-77
2023/05/15 10:42:44;;;;;;;0.70;0.53;;;;;;;;;;4885857;29;20479;-76
2023/05/15 10:45:11;;;;;;;1.67;0.93;;;;;;;;;;4917130;29;20749;-76
2023/05/15 10:47:39;;;;;;;5.23;1.80;;;;;;;;;;4885288;29;20444;-76
2023/05/15 10:50:07;;;;;;;0.70;0.60;;;;;;;;;;4886914;29;20510;-76
2023/05/15 10:52:36;;;;;;;1.10;1.00;;;;;;;;;;4888334;29;21011;-78
2023/05/15 10:55:05;;;;;;;0.70;0.57;;;;;;;;;;4883333;29;20457;-75
2023/05/15 10:57:33;;;;;;;0.70;0.60;;;;;;;;;;4897650;29;20975;-75
2023/05/15 11:00:00;;;;;;;0.80;0.60;;;;;;;;;;4881235;29;20561;-78
2023/05/15 11:02:30;;;;;;;1.43;1.33;;;;;;;;;;4888736;29;21123;-77
2023/05/15 11:04:57;;;;;;;0.90;0.90;;;;;;;;;;4888048;29;20542;-76
2023/05/15 11:07:25;;;;;;;1.07;0.97;;;;;;;;;;4885537;29;20459;-77
2023/05/15 11:09:53;;;;;;;0.90;0.83;;;;;;;;;;4880756;29;20520;-74
2023/05/15 11:12:20;;;;;;;1.23;1.10;;;;;;;;;;4892875;29;20562;-77
2023/05/15 11:15:06;;;;;;;0.73;0.70;;;;;;;;;;4886878;29;20456;-76
2023/05/15 11:17:33;;;;;;;0.70;0.60;;;;;;;;;;4872242;29;20487;-74
2023/05/15 11:20:00;;;;;;;0.70;0.60;;;;;;;;;;4866416;29;20447;-76
2023/05/15 11:22:31;;;;;;;1.27;1.17;;;;;;;;;;4883489;29;20459;-77
2023/05/15 11:25:00;;;;;;;0.90;0.83;;;;;;;;;;4889751;29;20427;-76
2023/05/15 11:27:28;;;;;;;0.90;0.80;;;;;;;;;;4870428;29;20476;-78
2023/05/15 11:30:19;;;;;;;1.47;1.33;;;;;;;;;;4882093;29;20440;-77
2023/05/15 11:32:49;;;;;;;4.30;1.00;;;;;;;;;;4885489;29;20475;-76
2023/05/15 11:35:21;;;;;;;0.70;0.60;;;;;;;;;;4884844;29;20447;-77
2023/05/15 11:37:50;;;;;;;2.07;1.87;;;;;;;;;;4870552;29;20579;-77
2023/05/15 11:40:22;;;;;;;1.43;1.33;;;;;;;;;;4889298;29;21535;-76
2023/05/15 11:43:13;;;;;;;0.80;0.70;;;;;;;;;;4889121;29;20442;-75
2023/05/15 11:45:39;;;;;;;0.90;0.90;;;;;;;;;;4885165;29;20459;-76
2023/05/15 11:48:11;;;;;;;1.40;1.30;;;;;;;;;;4882173;29;20475;-76
2023/05/15 11:50:38;;;;;;;0.70;0.60;;;;;;;;;;4887797;29;20440;-77
2023/05/15 11:53:08;;;;;;;1.07;0.80;;;;;;;;;;4887617;29;20470;-77
2023/05/15 11:55:40;;;;;;;0.80;0.80;;;;;;;;;;4885187;29;20444;-76
2023/05/15 11:58:10;;;;;;;0.80;0.80;;;;;;;;;;4898335;29;20461;-76
2023/05/15 12:00:38;;;;;;;0.80;0.60;;;;;;;;;;4885580;29;20443;-76
2023/05/15 12:03:05;;;;;;;0.70;0.60;;;;;;;;;;4887290;29;20474;-75
2023/05/15 12:05:33;;;;;;;1.87;0.87;;;;;;;;;;4867488;29;20459;-76
2023/05/15 12:08:01;;;;;;;1.80;1.70;;;;;;;;;;4925623;29;20483;-76
2023/05/15 12:10:28;;;;;;;0.80;0.80;;;;;;;;;;4886495;29;20463;-78
2023/05/15 12:12:58;;;;;;;0.70;0.70;;;;;;;;;;4913397;29;20539;-76
2023/05/15 12:15:25;;;;;;;0.70;0.70;;;;;;;;;;4886651;29;20536;-76
2023/05/15 12:17:52;;;;;;;3.67;1.53;;;;;;;;;;4870828;29;20491;-76
2023/05/15 12:20:19;;;;;;;1.07;0.97;;;;;;;;;;4887142;29;20456;-76
2023/05/15 12:22:47;;;;;;;0.83;0.83;;;;;;;;;;4889687;29;20967;-76
2023/05/15 12:25:19;;;;;;;1.00;0.90;;;;;;;;;;4912022;29;20449;-76
2023/05/15 12:27:51;;;;;;;0.70;0.60;;;;;;;;;;4887796;29;20531;-75
2023/05/15 12:30:20;;;;;;;1.77;0.70;;;;;;;;;;4884534;29;20448;-77
2023/05/15 12:32:47;;;;;;;0.77;0.70;;;;;;;;;;4882745;29;20524;-75
2023/05/15 12:35:14;;;;;;;1.40;1.10;;;;;;;;;;4883748;29;20431;-77
2023/05/15 12:37:41;;;;;;;0.80;0.70;;;;;;;;;;4885593;29;20472;-77
2023/05/15 12:40:14;;;;;;;0.87;0.80;;;;;;;;;;4884692;29;20471;-77
2023/05/15 12:42:52;;;;;;;0.90;0.70;;;;;;;;;;4884395;29;20459;-76
2023/05/15 12:45:21;;;;;;;0.80;0.60;;;;;;;;;;4880361;29;21501;-75
2023/05/15 12:47:49;;;;;;;0.70;0.60;;;;;;;;;;4880905;29;20436;-75
2023/05/15 12:50:18;;;;;;;1.47;0.77;;;;;;;;;;4885179;29;20474;-76
2023/05/15 12:52:45;;;;;;;5.43;1.53;;;;;;;;;;4885355;29;20579;-77
2023/05/15 12:55:14;;;;;;;1.87;1.67;;;;;;;;;;4884924;29;20448;-76
2023/05/15 12:57:42;;;;;;;0.70;0.60;;;;;;;;;;4886385;29;20482;-76
2023/05/15 13:00:10;;;;;;;0.77;0.73;;;;;;;;;;4884879;29;20444;-76
2023/05/15 13:02:41;;;;;;;0.70;0.60;;;;;;;;;;4887451;29;20440;-75
2023/05/15 13:05:08;;;;;;;0.73;0.67;;;;;;;;;;4888351;29;20589;-77
2023/05/15 13:07:35;;;;;;;0.70;0.60;;;;;;;;;;4887773;29;20463;-77
2023/05/15 13:10:07;;;;;;;1.33;1.23;;;;;;;;;;4893522;29;20503;-76
2023/05/15 13:12:36;;;;;;;0.90;0.80;;;;;;;;;;4891545;29;20467;-76
2023/05/15 13:15:20;;;;;;;0.77;0.70;;;;;;;;;;4888550;29;20439;-76
2023/05/15 13:17:55;;;;;;;0.80;0.77;;;;;;;;;;4886835;29;20460;-77
2023/05/15 13:20:23;;;;;;;0.70;0.50;;;;;;;;;;4883345;29;20448;-77
2023/05/15 13:22:50;;;;;;;0.80;0.80;;;;;;;;;;4879199;29;20966;-76
2023/05/15 13:25:18;;;;;;;0.80;0.70;;;;;;;;;;4882835;29;20463;-78
2023/05/15 13:27:46;;;;;;;0.93;0.90;;;;;;;;;;4884989;29;20542;-76
2023/05/15 13:30:13;;;;;;;0.70;0.60;;;;;;;;;;4886075;29;20452;-76
2023/05/15 13:32:39;;;;;;;0.70;0.60;;;;;;;;;;4881680;29;20471;-77
2023/05/15 13:35:09;;;;;;;1.00;0.93;;;;;;;;;;4890492;29;20783;-76
2023/05/15 13:37:37;;;;;;;1.87;0.80;;;;;;;;;;4885849;29;20515;-77
2023/05/15 13:40:08;;;;;;;1.47;1.37;;;;;;;;;;4884551;29;20450;-76
2023/05/15 13:42:35;;;;;;;1.73;1.60;;;;;;;;;;4885251;29;20531;-76
2023/05/15 13:45:04;;;;;;;2.73;1.00;;;;;;;;;;4890584;29;21049;-77
2023/05/15 13:47:31;;;;;;;2.30;1.90;;;;;;;;;;4884504;29;20460;-76
2023/05/15 13:49:59;;;;;;;0.70;0.50;;;;;;;;;;4890040;29;20495;-77
2023/05/15 13:52:28;;;;;;;1.53;1.43;;;;;;;;;;4882222;29;20579;-77
2023/05/15 13:55:00;;;;;;;1.13;1.03;;;;;;;;;;4880100;29;20965;-76
2023/05/15 13:57:29;;;;;;;0.80;0.80;;;;;;;;;;4879074;29;20457;-77
2023/05/15 14:00:01;;;;;;;0.80;0.80;;;;;;;;;;4880408;29;20945;-76
2023/05/15 14:02:30;;;;;;;0.80;0.80;;;;;;;;;;4881682;29;20527;-77
2023/05/15 14:04:57;;;;;;;0.70;0.60;;;;;;;;;;4882871;29;20825;-76
2023/05/15 14:07:24;;;;;;;0.70;0.60;;;;;;;;;;4883338;29;20475;-76
2023/05/15 14:09:52;;;;;;;0.70;0.60;;;;;;;;;;4887072;29;20446;-76
2023/05/15 14:12:20;;;;;;;0.70;0.60;;;;;;;;;;4882769;29;20945;-77
2023/05/15 14:14:47;;;;;;;1.57;1.47;;;;;;;;;;4886187;29;20538;-76
2023/05/15 14:17:15;;;;;;;1.10;1.00;;;;;;;;;;4894995;29;20453;-76
2023/05/15 14:19:42;;;;;;;0.73;0.70;;;;;;;;;;4871204;29;20498;-76
2023/05/15 14:22:12;;;;;;;1.00;0.90;;;;;;;;;;4871282;29;20460;-77
2023/05/15 14:24:40;;;;;;;1.73;1.63;;;;;;;;;;4884381;29;20446;-75
2023/05/15 14:27:08;;;;;;;0.83;0.83;;;;;;;;;;4881226;29;20455;-77
2023/05/15 14:29:35;;;;;;;0.80;0.80;;;;;;;;;;4883326;29;20451;-77
2023/05/15 14:32:02;;;;;;;1.00;0.90;;;;;;;;;;4881811;29;20444;-76
2023/05/15 14:34:29;;;;;;;2.63;1.73;;;;;;;;;;4879482;29;20499;-75
2023/05/15 14:36:56;;;;;;;1.00;1.00;;;;;;;;;;4885226;29;21440;-76
2023/05/15 14:39:23;;;;;;;1.03;0.93;;;;;;;;;;4885982;29;20456;-76
2023/05/15 14:41:50;;;;;;;0.80;0.70;;;;;;;;;;4883974;29;20443;-77
2023/05/15 14:44:23;;;;;;;3.73;3.43;;;;;;;;;;4866056;29;20533;-76
2023/05/15 14:47:03;;;;;;;1.80;1.70;;;;;;;;;;4884616;29;20532;-77
2023/05/15 14:49:30;;;;;;;1.80;1.70;;;;;;;;;;4898208;29;20444;-77